createdAt,value
2022-08-20T00:01:01.593Z,1.60
2022-08-20T00:03:32.110Z,1.42
2022-08-20T00:06:02.239Z,1.70
2022-08-20T00:08:29.185Z,1.50
2022-08-20T00:10:56.720Z,1.23
2022-08-20T00:13:36.408Z,1.50
2022-08-20T00:16:04.332Z,1.30
2022-08-20T00:18:31.024Z,1.60
2022-08-20T00:20:57.941Z,1.40
2022-08-20T00:23:25.495Z,1.52
2022-08-20T00:28:18.988Z,1.20
2022-08-20T00:30:46.291Z,1.30
2022-08-20T00:33:16.838Z,1.55
2022-08-20T00:35:46.851Z,1.58
2022-08-20T00:38:13.650Z,1.40
2022-08-20T00:40:47.112Z,1.40
2022-08-20T00:43:38.594Z,1.20
2022-08-20T00:46:11.776Z,1.38
2022-08-20T00:48:41.060Z,1.45
2022-08-20T00:51:31.234Z,1.38
2022-08-20T00:54:14.167Z,1.30
2022-08-20T00:56:44.092Z,1.30
2022-08-20T00:59:16.409Z,1.70
2022-08-20T01:01:55.278Z,1.58
2022-08-20T01:04:25.409Z,1.30
2022-08-20T01:06:52.464Z,1.30
2022-08-20T01:09:50.556Z,1.20
2022-08-20T01:12:07.895Z,1.30
2022-08-20T01:14:34.524Z,1.30
2022-08-20T01:17:05.836Z,1.35
2022-08-20T01:19:41.239Z,1.38
2022-08-20T01:22:27.031Z,1.40
2022-08-20T01:24:59.991Z,1.67
2022-08-20T01:27:27.274Z,1.60
2022-08-20T01:29:57.833Z,1.40
2022-08-20T01:32:24.805Z,1.30
2022-08-20T01:34:51.521Z,1.33
2022-08-20T01:37:18.121Z,1.30
2022-08-20T01:39:44.814Z,1.05
2022-08-20T01:42:18.141Z,1.30
2022-08-20T01:44:47.045Z,1.38
2022-08-20T01:47:16.013Z,1.30
2022-08-20T01:49:46.820Z,1.30
2022-08-20T01:52:24.471Z,1.20
2022-08-20T01:54:52.274Z,1.30
2022-08-20T01:57:20.662Z,1.50
2022-08-20T01:59:48.156Z,1.30
2022-08-20T02:02:14.774Z,1.05
2022-08-20T02:04:41.711Z,1.20
2022-08-20T02:07:14.646Z,1.33
2022-08-20T02:09:41.329Z,1.50
2022-08-20T02:12:09.355Z,1.20
2022-08-20T02:14:40.296Z,1.10
2022-08-20T02:17:07.045Z,1.30
2022-08-20T02:19:43.235Z,1.50
2022-08-20T02:22:24.603Z,1.63
2022-08-20T02:24:51.570Z,1.13
2022-08-20T02:27:23.642Z,1.30
2022-08-20T02:29:51.286Z,1.25
2022-08-20T02:35:03.601Z,1.38
2022-08-20T02:37:30.818Z,1.42
2022-08-20T02:39:57.486Z,1.33
2022-08-20T02:42:24.051Z,1.42
2022-08-20T02:44:50.599Z,1.23
2022-08-20T02:47:17.374Z,1.45
2022-08-20T02:49:44.118Z,1.48
2022-08-20T02:52:11.025Z,1.48
2022-08-20T02:54:37.560Z,1.15
2022-08-20T02:57:04.626Z,1.30
2022-08-20T02:59:31.476Z,1.30
2022-08-20T03:01:59.958Z,1.50
2022-08-20T03:04:29.107Z,1.52
2022-08-20T03:06:55.815Z,1.80
2022-08-20T03:09:22.350Z,1.50
2022-08-20T03:11:49.257Z,1.52
2022-08-20T03:14:15.878Z,1.58
2022-08-20T03:16:43.101Z,1.35
2022-08-20T03:19:09.763Z,1.50
2022-08-20T03:21:36.741Z,1.30
2022-08-20T03:24:03.429Z,1.55
2022-08-20T03:26:29.956Z,1.45
2022-08-20T03:28:56.535Z,1.60
2022-08-20T03:31:23.265Z,1.40
2022-08-20T03:33:53.599Z,1.50
2022-08-20T03:36:27.716Z,1.70
2022-08-20T03:39:00.671Z,1.60
2022-08-20T03:41:28.645Z,1.60
2022-08-20T03:43:55.239Z,1.70
2022-08-20T03:46:22.045Z,1.80
2022-08-20T03:48:50.015Z,1.63
2022-08-20T03:51:23.059Z,2.05
2022-08-20T03:53:49.655Z,1.83
2022-08-20T03:56:17.340Z,1.75
2022-08-20T03:58:44.279Z,1.70
2022-08-20T04:01:36.835Z,1.75
2022-08-20T04:03:58.835Z,1.80
2022-08-20T04:06:26.653Z,1.85
2022-08-20T04:08:54.044Z,1.77
2022-08-20T04:11:20.630Z,1.45
2022-08-20T04:13:47.206Z,1.70
2022-08-20T04:16:16.235Z,1.80
2022-08-20T04:18:43.506Z,1.90
2022-08-20T04:21:32.711Z,1.90
2022-08-20T04:24:01.147Z,1.70
2022-08-20T04:26:27.873Z,1.90
2022-08-20T04:28:55.542Z,1.80
2022-08-20T04:31:31.256Z,1.77
2022-08-20T04:33:57.833Z,1.67
2022-08-20T04:36:24.587Z,1.90
2022-08-20T04:38:51.270Z,2.53
2022-08-20T04:41:23.131Z,3.15
2022-08-20T04:43:54.537Z,2.65
2022-08-20T04:46:23.566Z,2.65
2022-08-20T04:48:50.578Z,2.70
2022-08-20T04:51:18.340Z,2.83
2022-08-20T04:53:51.966Z,3.53
2022-08-20T04:56:23.385Z,3.25
2022-08-20T04:58:51.183Z,3.70
2022-08-20T05:01:20.443Z,3.47
2022-08-20T05:03:50.040Z,3.42
2022-08-20T05:06:18.037Z,3.55
2022-08-20T05:08:45.348Z,3.33
2022-08-20T05:11:34.277Z,3.00
2022-08-20T05:13:58.877Z,3.38
2022-08-20T05:16:25.679Z,3.33
2022-08-20T05:18:52.980Z,3.10
2022-08-20T05:21:20.934Z,2.78
2022-08-20T05:23:49.117Z,3.42
2022-08-20T05:26:16.256Z,3.30
2022-08-20T05:28:57.338Z,3.60
2022-08-20T05:31:31.734Z,3.55
2022-08-20T05:33:59.955Z,3.80
2022-08-20T05:36:26.965Z,3.70
2022-08-20T05:38:53.856Z,4.30
2022-08-20T05:41:29.110Z,3.90
2022-08-20T05:43:59.603Z,3.90
2022-08-20T05:46:26.282Z,4.10
2022-08-20T05:48:52.978Z,4.00
2022-08-20T05:51:19.484Z,3.85
2022-08-20T05:53:46.081Z,3.47
2022-08-20T05:56:12.718Z,3.45
2022-08-20T05:58:39.597Z,3.80
2022-08-20T06:01:06.350Z,3.80
2022-08-20T06:03:51.657Z,3.65
2022-08-20T06:06:45.070Z,3.25
2022-08-20T06:11:36.505Z,3.60
2022-08-20T06:14:04.686Z,3.53
2022-08-20T06:16:31.232Z,3.95
2022-08-20T06:18:58.506Z,3.33
2022-08-20T06:21:25.690Z,3.65
2022-08-20T06:23:58.288Z,3.22
2022-08-20T06:26:30.222Z,3.55
2022-08-20T06:29:05.633Z,3.72
2022-08-20T06:31:32.733Z,3.50
2022-08-20T06:33:59.379Z,3.38
2022-08-20T06:36:26.097Z,3.05
2022-08-20T06:38:55.018Z,3.22
2022-08-20T06:41:21.670Z,3.00
2022-08-20T06:43:48.743Z,3.30
2022-08-20T06:46:15.571Z,4.30
2022-08-20T06:48:42.240Z,3.53
2022-08-20T06:51:09.818Z,2.83
2022-08-20T06:56:03.380Z,3.28
2022-08-20T06:58:36.941Z,3.38
2022-08-20T07:01:11.094Z,3.10
2022-08-20T07:03:54.751Z,3.17
2022-08-20T07:06:22.033Z,2.97
2022-08-20T07:08:48.686Z,2.80
2022-08-20T07:11:15.347Z,3.45
2022-08-20T07:13:42.432Z,3.70
2022-08-20T07:16:09.114Z,3.70
2022-08-20T07:18:36.355Z,3.58
2022-08-20T07:21:03.162Z,3.83
2022-08-20T07:23:31.538Z,4.22
2022-08-20T07:25:58.366Z,3.80
2022-08-20T07:28:28.634Z,4.70
2022-08-20T07:31:15.795Z,4.47
2022-08-20T07:33:44.282Z,4.00
2022-08-20T07:36:12.124Z,4.80
2022-08-20T07:38:38.734Z,4.90
2022-08-20T07:41:09.937Z,4.78
2022-08-20T07:43:36.671Z,4.78
2022-08-20T07:46:09.306Z,4.82
2022-08-20T07:48:39.924Z,4.68
2022-08-20T07:51:07.688Z,5.22
2022-08-20T07:53:36.610Z,4.43
2022-08-20T07:56:08.381Z,4.88
2022-08-20T07:58:36.714Z,3.85
2022-08-20T08:01:05.668Z,4.90
2022-08-20T08:03:39.356Z,3.80
2022-08-20T08:06:15.682Z,3.92
2022-08-20T08:08:47.050Z,4.13
2022-08-20T08:11:13.833Z,4.32
2022-08-20T08:13:41.781Z,4.30
2022-08-20T08:16:09.363Z,4.00
2022-08-20T08:21:06.455Z,4.43
2022-08-20T08:23:34.616Z,4.07
2022-08-20T08:26:01.537Z,4.15
2022-08-20T08:28:31.014Z,4.30
2022-08-20T08:30:57.797Z,4.05
2022-08-20T08:33:33.497Z,3.88
2022-08-20T08:36:05.643Z,3.95
2022-08-20T08:38:34.306Z,3.83
2022-08-20T08:41:29.242Z,4.70
2022-08-20T08:44:01.852Z,4.20
2022-08-20T08:46:49.549Z,3.97
2022-08-20T08:49:19.562Z,5.18
2022-08-20T08:51:54.307Z,3.85
2022-08-20T08:54:25.891Z,4.63
2022-08-20T08:56:53.097Z,4.30
2022-08-20T08:59:21.508Z,4.15
2022-08-20T09:01:56.621Z,3.97
2022-08-20T09:04:31.479Z,4.25
2022-08-20T09:06:58.721Z,4.50
2022-08-20T09:09:28.967Z,4.72
2022-08-20T09:11:58.043Z,4.30
2022-08-20T09:14:25.026Z,4.28
2022-08-20T09:16:52.749Z,3.40
2022-08-20T09:19:21.241Z,3.83
2022-08-20T09:21:48.202Z,3.38
2022-08-20T09:24:14.844Z,3.28
2022-08-20T09:26:41.480Z,2.60
2022-08-20T09:29:08.206Z,2.80
2022-08-20T09:31:35.734Z,2.60
2022-08-20T09:34:04.810Z,2.47
2022-08-20T09:36:32.666Z,2.63
2022-08-20T09:39:00.469Z,2.55
2022-08-20T09:43:54.463Z,2.88
2022-08-20T09:51:20.824Z,2.47
2022-08-20T09:53:47.536Z,2.42
2022-08-20T09:56:14.161Z,2.22
2022-08-20T09:58:47.341Z,2.42
2022-08-20T10:01:16.101Z,2.40
2022-08-20T10:03:44.334Z,2.85
2022-08-20T10:06:11.424Z,2.20
2022-08-20T10:08:38.473Z,2.17
2022-08-20T10:11:05.213Z,2.53
2022-08-20T10:13:31.815Z,2.25
2022-08-20T10:15:58.415Z,2.40
2022-08-20T10:18:24.985Z,2.25
2022-08-20T10:20:51.542Z,2.15
2022-08-20T10:23:18.049Z,2.20
2022-08-20T10:25:44.687Z,2.10
2022-08-20T10:28:11.713Z,2.40
2022-08-20T10:30:38.439Z,2.10
2022-08-20T10:33:05.067Z,1.75
2022-08-20T10:35:31.716Z,2.00
2022-08-20T10:37:58.852Z,1.90
2022-08-20T10:40:25.672Z,1.75
2022-08-20T10:42:52.292Z,2.30
2022-08-20T10:45:18.939Z,2.10
2022-08-20T10:47:45.579Z,2.60
2022-08-20T10:50:15.940Z,2.40
2022-08-20T10:52:42.902Z,2.70
2022-08-20T10:55:10.336Z,1.92
2022-08-20T10:57:39.333Z,1.83
2022-08-20T11:00:09.217Z,1.90
2022-08-20T11:02:36.329Z,1.50
2022-08-20T11:05:03.378Z,2.13
2022-08-20T11:07:49.791Z,2.45
2022-08-20T11:10:20.389Z,2.47
2022-08-20T11:12:47.048Z,2.40
2022-08-20T11:15:15.129Z,2.60
2022-08-20T11:17:43.208Z,2.65
2022-08-20T11:20:12.149Z,2.58
2022-08-20T11:22:38.956Z,2.80
2022-08-20T11:25:07.192Z,3.13
2022-08-20T11:27:39.410Z,2.72
2022-08-20T11:30:09.180Z,2.70
2022-08-20T11:32:36.053Z,3.33
2022-08-20T11:35:18.799Z,2.90
2022-08-20T11:37:53.649Z,3.13
2022-08-20T11:40:20.766Z,3.20
2022-08-20T11:43:11.026Z,5.47
2022-08-20T11:45:37.677Z,3.60
2022-08-20T11:48:04.938Z,3.47
2022-08-20T11:50:31.664Z,2.72
2022-08-20T11:52:58.379Z,2.88
2022-08-20T11:55:28.624Z,2.95
2022-08-20T11:58:00.371Z,3.00
2022-08-20T12:00:31.861Z,8.13
2022-08-20T12:03:00.788Z,5.75
2022-08-20T12:07:56.148Z,4.68
2022-08-20T12:10:24.420Z,8.30
2022-08-20T12:12:51.056Z,8.43
2022-08-20T12:15:17.657Z,3.75
2022-08-20T12:17:44.239Z,4.38
2022-08-20T12:20:12.724Z,3.28
2022-08-20T12:22:39.809Z,3.30
2022-08-20T12:25:07.556Z,3.65
2022-08-20T12:27:35.932Z,3.70
2022-08-20T12:30:09.489Z,3.80
2022-08-20T12:32:36.158Z,3.97
2022-08-20T12:35:05.772Z,4.80
2022-08-20T12:37:32.736Z,4.90
2022-08-20T12:40:00.892Z,4.60
2022-08-20T12:42:30.323Z,5.22
2022-08-20T12:44:58.180Z,4.80
2022-08-20T12:47:30.612Z,4.05
2022-08-20T12:50:06.651Z,4.22
2022-08-20T12:52:33.715Z,5.97
2022-08-20T12:55:00.745Z,4.78
2022-08-20T12:57:28.296Z,4.70
2022-08-20T12:59:56.776Z,5.10
2022-08-20T13:02:25.949Z,4.70
2022-08-20T13:04:52.979Z,4.15
2022-08-20T13:07:19.741Z,4.10
2022-08-20T13:09:46.368Z,3.28
2022-08-20T13:12:14.392Z,5.22
2022-08-20T13:14:42.059Z,2.70
2022-08-20T13:17:09.008Z,3.33
2022-08-20T13:19:37.083Z,4.47
2022-08-20T13:22:04.313Z,4.38
2022-08-20T13:24:31.261Z,4.00
2022-08-20T13:27:27.766Z,3.35
2022-08-20T13:29:58.628Z,1.92
2022-08-20T13:32:26.061Z,2.30
2022-08-20T13:34:52.703Z,1.83
2022-08-20T13:37:25.782Z,2.47
2022-08-20T13:39:54.093Z,2.50
2022-08-20T13:42:20.806Z,1.92
2022-08-20T13:44:47.523Z,2.60
2022-08-20T13:47:19.411Z,2.50
2022-08-20T13:49:46.598Z,2.60
2022-08-20T13:52:13.755Z,2.40
2022-08-20T13:54:43.756Z,2.70
2022-08-20T13:57:13.030Z,2.58
2022-08-20T13:59:42.112Z,2.22
2022-08-20T14:02:09.996Z,1.90
2022-08-20T14:04:36.931Z,2.08
2022-08-20T14:07:20.831Z,2.70
2022-08-20T14:09:51.611Z,2.75
2022-08-20T14:12:18.156Z,2.00
2022-08-20T14:14:44.765Z,1.77
2022-08-20T14:17:16.150Z,1.75
2022-08-20T14:19:43.182Z,1.77
2022-08-20T14:22:09.807Z,1.63
2022-08-20T14:24:36.442Z,1.13
2022-08-20T14:27:05.150Z,1.70
2022-08-20T14:29:36.890Z,1.63
2022-08-20T14:32:04.527Z,1.83
2022-08-20T14:37:10.352Z,1.10
2022-08-20T14:39:37.038Z,1.40
2022-08-20T14:42:03.728Z,1.13
2022-08-20T14:44:30.288Z,1.20
2022-08-20T14:46:56.885Z,1.20
2022-08-20T14:49:23.459Z,1.50
2022-08-20T14:51:50.073Z,1.20
2022-08-20T14:54:16.657Z,1.10
2022-08-20T14:56:43.210Z,1.20
2022-08-20T14:59:09.851Z,1.38
2022-08-20T15:01:36.437Z,1.63
2022-08-20T15:04:03.203Z,1.40
2022-08-20T15:06:31.334Z,1.55
2022-08-20T15:08:57.895Z,1.58
2022-08-20T15:11:24.548Z,1.77
2022-08-20T15:13:51.100Z,1.63
2022-08-20T15:16:18.088Z,1.73
2022-08-20T15:18:44.668Z,1.90
2022-08-20T15:21:11.348Z,1.90
2022-08-20T15:23:37.962Z,1.83
2022-08-20T15:26:05.552Z,2.35
2022-08-20T15:30:58.676Z,2.33
2022-08-20T15:33:25.209Z,2.10
2022-08-20T15:35:51.783Z,2.08
2022-08-20T15:38:18.497Z,2.00
2022-08-20T15:40:45.133Z,2.30
2022-08-20T15:43:11.669Z,2.28
2022-08-20T15:45:38.553Z,2.50
2022-08-20T15:48:16.551Z,2.30
2022-08-20T15:50:53.918Z,2.60
2022-08-20T15:53:27.507Z,2.38
2022-08-20T15:55:59.911Z,1.90
2022-08-20T15:58:37.180Z,2.22
2022-08-20T16:01:24.714Z,2.45
2022-08-20T16:04:04.133Z,2.35
2022-08-20T16:06:32.481Z,2.35
2022-08-20T16:09:04.169Z,2.08
2022-08-20T16:11:43.209Z,2.15
2022-08-20T16:14:09.665Z,1.83
2022-08-20T16:16:42.993Z,1.70
2022-08-20T16:19:12.320Z,1.70
2022-08-20T16:21:41.501Z,1.60
2022-08-20T16:24:12.831Z,1.70
2022-08-20T16:26:40.370Z,1.73
2022-08-20T16:29:43.492Z,1.60
2022-08-20T16:32:13.775Z,1.70
2022-08-20T16:35:04.005Z,1.52
2022-08-20T16:37:50.452Z,1.67
2022-08-20T16:40:23.352Z,1.75
2022-08-20T16:42:52.331Z,1.77
2022-08-20T16:45:25.963Z,1.83
2022-08-20T16:47:55.521Z,1.85
2022-08-20T16:50:24.956Z,1.52
2022-08-20T16:52:52.362Z,1.50
2022-08-20T16:55:21.474Z,1.30
2022-08-20T16:57:48.780Z,2.28
2022-08-20T17:00:35.026Z,2.70
2022-08-20T17:03:01.651Z,2.60
2022-08-20T17:05:48.311Z,2.10
2022-08-20T17:08:21.512Z,1.85
2022-08-20T17:10:57.544Z,1.52
2022-08-20T17:13:30.506Z,1.40
2022-08-20T17:16:18.861Z,1.50
2022-08-20T17:18:51.190Z,1.60
2022-08-20T17:21:27.176Z,1.70
2022-08-20T17:24:09.768Z,1.40
2022-08-20T17:26:47.283Z,1.70
2022-08-20T17:29:19.818Z,1.65
2022-08-20T17:31:50.368Z,1.63
2022-08-20T17:34:22.947Z,1.92
2022-08-20T17:37:17.980Z,2.28
2022-08-20T17:39:47.754Z,29.52
2022-08-20T17:42:26.792Z,25.83
2022-08-20T17:45:16.100Z,6.13
2022-08-20T17:47:43.860Z,3.10
2022-08-20T17:50:18.048Z,2.30
2022-08-20T17:52:49.233Z,2.40
2022-08-20T17:55:16.016Z,2.40
2022-08-20T17:57:46.045Z,1.98
2022-08-20T18:00:17.562Z,1.85
2022-08-20T18:02:44.772Z,2.05
2022-08-20T18:05:18.632Z,1.90
2022-08-20T18:08:02.471Z,2.10
2022-08-20T18:10:29.833Z,2.10
2022-08-20T18:18:17.230Z,2.20
2022-08-20T18:21:08.544Z,2.13
2022-08-20T18:23:42.234Z,2.72
2022-08-20T18:26:18.599Z,2.53
2022-08-20T18:28:52.346Z,2.30
2022-08-20T18:31:27.180Z,2.45
2022-08-20T18:33:54.159Z,2.72
2022-08-20T18:36:20.664Z,2.42
2022-08-20T18:39:29.836Z,2.58
2022-08-20T18:41:59.397Z,2.40
2022-08-20T18:44:37.803Z,2.50
2022-08-20T18:47:06.961Z,2.40
2022-08-20T18:49:39.207Z,2.10
2022-08-20T18:52:22.317Z,2.33
2022-08-20T18:54:53.031Z,2.30
2022-08-20T18:57:25.413Z,2.40
2022-08-20T19:00:01.084Z,2.10
2022-08-20T19:02:35.025Z,2.58
2022-08-20T19:05:05.365Z,2.92
2022-08-20T19:07:48.036Z,2.33
2022-08-20T19:10:42.633Z,2.30
2022-08-20T19:13:36.831Z,2.42
2022-08-20T19:16:10.510Z,2.65
2022-08-20T19:18:42.257Z,2.60
2022-08-20T19:21:15.993Z,2.50
2022-08-20T19:23:49.318Z,2.60
2022-08-20T19:26:25.276Z,2.72
2022-08-20T19:28:57.158Z,2.65
2022-08-20T19:31:29.926Z,2.72
2022-08-20T19:34:22.915Z,2.50
2022-08-20T19:37:34.904Z,2.58
2022-08-20T19:40:02.298Z,2.65
2022-08-20T19:42:33.367Z,2.90
2022-08-20T19:45:06.326Z,2.47
2022-08-20T19:47:54.671Z,2.97
2022-08-20T19:50:54.783Z,2.80
2022-08-20T19:53:30.389Z,2.83
2022-08-20T19:56:19.984Z,2.22
2022-08-20T19:59:00.038Z,2.53
2022-08-20T20:01:27.859Z,2.50
2022-08-20T20:04:00.462Z,2.88
2022-08-20T20:06:28.733Z,2.80
2022-08-20T20:09:00.915Z,3.15
2022-08-20T20:11:35.707Z,2.20
2022-08-20T20:14:08.120Z,2.53
2022-08-20T20:16:36.090Z,2.60
2022-08-20T20:19:25.217Z,2.35
2022-08-20T20:22:04.633Z,2.50
2022-08-20T20:24:44.797Z,2.50
2022-08-20T20:27:20.882Z,2.60
2022-08-20T20:29:48.680Z,2.47
2022-08-20T20:32:21.532Z,2.33
2022-08-20T20:34:56.704Z,2.63
2022-08-20T20:37:49.170Z,2.47
2022-08-20T20:40:20.451Z,3.20
2022-08-20T20:42:57.486Z,2.60
2022-08-20T20:45:30.929Z,3.00
2022-08-20T20:47:57.906Z,3.25
2022-08-20T20:50:36.174Z,2.88
2022-08-20T20:53:02.809Z,3.00
2022-08-20T20:55:34.026Z,2.90
2022-08-20T20:58:02.538Z,2.72
2022-08-20T21:00:31.686Z,2.90
2022-08-20T21:02:58.655Z,2.67
2022-08-20T21:05:29.221Z,3.03
2022-08-20T21:08:01.394Z,2.80
2022-08-20T21:10:34.407Z,2.58
2022-08-20T21:13:03.408Z,2.80
2022-08-20T21:15:30.708Z,2.67
2022-08-20T21:18:02.463Z,2.47
2022-08-20T21:20:29.707Z,2.92
2022-08-20T21:22:58.437Z,2.42
2022-08-20T21:25:29.563Z,2.92
2022-08-20T21:27:56.256Z,2.60
2022-08-20T21:30:24.556Z,2.60
2022-08-20T21:32:51.197Z,2.90
2022-08-20T21:35:18.030Z,2.60
2022-08-20T21:37:44.687Z,2.83
2022-08-20T21:40:12.455Z,2.55
2022-08-20T21:42:40.172Z,2.60
2022-08-20T21:45:08.278Z,2.90
2022-08-20T21:47:35.162Z,2.92
2022-08-20T21:50:02.010Z,2.60
2022-08-20T21:52:28.694Z,2.80
2022-08-20T21:54:55.308Z,3.13
2022-08-20T21:57:25.281Z,2.60
2022-08-20T21:59:52.403Z,3.40
2022-08-20T22:02:19.570Z,2.78
2022-08-20T22:04:46.101Z,3.30
2022-08-20T22:07:13.795Z,4.47
2022-08-20T22:12:13.940Z,3.33
2022-08-20T22:14:40.663Z,2.85
2022-08-20T22:17:07.274Z,3.17
2022-08-20T22:19:33.825Z,3.08
2022-08-20T22:22:00.443Z,3.30
2022-08-20T22:24:28.611Z,3.13
2022-08-20T22:26:55.431Z,3.35
2022-08-20T22:29:22.271Z,3.28
2022-08-20T22:31:49.043Z,3.38
2022-08-20T22:34:17.429Z,3.60
2022-08-20T22:36:44.270Z,3.13
2022-08-20T22:39:10.894Z,3.70
2022-08-20T22:41:38.022Z,3.47
2022-08-20T22:44:04.793Z,4.10
2022-08-20T22:46:36.476Z,4.18
2022-08-20T22:49:04.794Z,3.70
2022-08-20T22:51:34.599Z,3.97
2022-08-20T22:54:03.692Z,3.88
2022-08-20T22:56:30.316Z,3.45
2022-08-20T22:58:59.128Z,3.70
2022-08-20T23:01:26.836Z,3.88
2022-08-20T23:03:53.507Z,4.05
2022-08-20T23:06:20.201Z,4.47
2022-08-20T23:08:46.905Z,4.57
2022-08-20T23:11:13.449Z,4.07
2022-08-20T23:13:40.093Z,4.57
2022-08-20T23:16:06.970Z,4.22
2022-08-20T23:18:33.686Z,5.20
2022-08-20T23:21:00.800Z,4.20
2022-08-20T23:23:27.584Z,4.97
2022-08-20T23:25:54.802Z,5.30
2022-08-20T23:28:23.414Z,4.75
2022-08-20T23:30:50.702Z,4.72
2022-08-20T23:33:17.454Z,5.00
2022-08-20T23:35:45.068Z,4.35
2022-08-20T23:38:12.139Z,4.53
2022-08-20T23:40:39.028Z,4.80
2022-08-20T23:43:05.878Z,5.00
2022-08-20T23:45:32.764Z,4.95
2022-08-20T23:47:59.423Z,5.18
2022-08-20T23:50:29.119Z,5.30
2022-08-20T23:52:56.729Z,4.80
2022-08-20T23:55:23.801Z,4.80
2022-08-20T23:57:50.455Z,4.43
